Terminal Aerodrome Forecast
Issued by NWS

Home | Current Version | Previous Version | Text Only | Print | Product List | Glossary Off
Versions: 1 2 3 4 5 6 7 8 9 10 11 12 13 14 15 16 17 18 19 20 21 22 23 24 25 26

843
FTUS45 KGGW 231737
TAFOLF
TAF
KOLF 231737Z 2318/2418 18009KT P6SM SCT150
     FM240700 12007KT P6SM SCT150 WS020/18035KT
     FM241400 14010KT P6SM SCT160
     FM241700 21012G21KT P6SM VCSH SCT060 BKN100=

USA.gov is the U.S. government's official web portal to all federal, state and local government web resources and services.